createdAt,value
2022-08-24T00:01:05.599Z,23.92
2022-08-24T00:03:46.904Z,23.87
2022-08-24T00:06:35.622Z,23.96
2022-08-24T00:09:16.428Z,23.86
2022-08-24T00:12:03.593Z,23.80
2022-08-24T00:14:44.454Z,23.76
2022-08-24T00:17:31.560Z,23.69
2022-08-24T00:20:12.720Z,23.71
2022-08-24T00:22:59.567Z,23.69
2022-08-24T00:25:40.006Z,23.66
2022-08-24T00:28:26.548Z,23.65
2022-08-24T00:31:13.636Z,23.68
2022-08-24T00:34:00.569Z,23.77
2022-08-24T00:36:48.542Z,23.76
2022-08-24T00:39:31.641Z,23.75
2022-08-24T00:42:18.565Z,23.80
2022-08-24T00:45:05.561Z,23.81
2022-08-24T00:47:58.671Z,23.84
2022-08-24T00:51:16.572Z,23.86
2022-08-24T00:54:02.973Z,23.91
2022-08-24T00:56:57.543Z,23.95
2022-08-24T00:59:45.059Z,23.92
2022-08-24T01:02:35.548Z,23.99
2022-08-24T01:05:25.529Z,23.90
2022-08-24T01:08:07.642Z,23.82
2022-08-24T01:11:08.526Z,23.79
2022-08-24T01:13:52.607Z,23.81
2022-08-24T01:16:57.539Z,23.78
2022-08-24T01:19:50.297Z,23.68
2022-08-24T01:22:55.554Z,23.66
2022-08-24T01:25:37.707Z,23.73
2022-08-24T01:28:27.736Z,23.88
2022-08-24T01:31:14.561Z,23.96
2022-08-24T01:34:02.582Z,24.06
2022-08-24T01:36:54.478Z,24.08
2022-08-24T01:39:44.535Z,24.06
2022-08-24T01:42:26.644Z,24.09
2022-08-24T01:45:14.458Z,24.02
2022-08-24T01:47:54.704Z,23.98
2022-08-24T01:50:41.456Z,24.04
2022-08-24T01:53:28.465Z,24.00
2022-08-24T01:56:15.488Z,23.95
2022-08-24T01:58:56.589Z,23.86
2022-08-24T02:01:50.555Z,23.81
2022-08-24T02:04:37.473Z,23.84
2022-08-24T02:07:25.473Z,23.76
2022-08-24T02:10:07.292Z,23.80
2022-08-24T02:13:04.613Z,23.75
2022-08-24T02:15:47.958Z,23.75
2022-08-24T02:18:34.449Z,23.76
2022-08-24T02:21:23.454Z,23.75
2022-08-24T02:24:11.418Z,23.71
2022-08-24T02:26:58.436Z,23.73
2022-08-24T02:29:40.097Z,23.70
2022-08-24T02:32:26.453Z,23.74
2022-08-24T02:35:13.434Z,23.74
2022-08-24T02:37:54.586Z,23.75
2022-08-24T02:40:42.469Z,23.75
2022-08-24T02:43:30.409Z,23.76
2022-08-24T02:46:27.487Z,23.78
2022-08-24T02:49:15.415Z,23.81
2022-08-24T02:52:03.439Z,23.80
2022-08-24T02:54:51.418Z,23.79
2022-08-24T02:57:32.193Z,23.79
2022-08-24T03:00:25.454Z,23.81
2022-08-24T03:03:14.434Z,23.80
2022-08-24T03:06:01.374Z,23.81
2022-08-24T03:26:36.688Z,23.53
2022-08-24T03:29:24.045Z,23.62
2022-08-24T03:32:05.238Z,23.65
2022-08-24T03:34:51.725Z,23.73
2022-08-24T03:37:39.702Z,23.76
2022-08-24T03:40:23.125Z,23.75
2022-08-24T03:43:13.712Z,23.77
2022-08-24T03:45:54.137Z,23.77
2022-08-24T03:48:40.684Z,23.75
2022-08-24T03:51:26.996Z,23.75
2022-08-24T03:54:16.704Z,23.78
2022-08-24T03:57:03.694Z,23.79
2022-08-24T03:59:46.143Z,23.81
2022-08-24T04:02:33.761Z,23.85
2022-08-24T04:05:14.817Z,23.86
2022-08-24T04:08:01.723Z,23.84
2022-08-24T04:10:44.968Z,23.82
2022-08-24T04:13:32.686Z,23.93
2022-08-24T04:16:14.845Z,24.12
2022-08-24T04:19:06.662Z,24.22
2022-08-24T04:21:47.241Z,24.13
2022-08-24T04:24:33.677Z,24.12
2022-08-24T04:27:14.807Z,24.08
2022-08-24T04:30:01.645Z,24.04
2022-08-24T04:32:56.766Z,24.06
2022-08-24T04:35:47.624Z,24.09
2022-08-24T04:38:38.616Z,24.16
2022-08-24T04:41:51.631Z,24.09
2022-08-24T04:44:33.746Z,24.13
2022-08-24T04:47:20.671Z,24.09
2022-08-24T04:50:07.629Z,24.01
2022-08-24T04:52:55.755Z,23.91
2022-08-24T04:55:35.630Z,23.83
2022-08-24T04:58:24.735Z,23.85
2022-08-24T05:01:04.695Z,23.96
2022-08-24T05:03:47.825Z,24.09
2022-08-24T05:06:37.616Z,24.14
2022-08-24T05:09:18.046Z,24.09
2022-08-24T05:12:04.627Z,24.24
2022-08-24T05:14:49.011Z,24.35
2022-08-24T05:17:36.607Z,24.49
2022-08-24T05:20:17.599Z,24.75
2022-08-24T05:23:07.812Z,24.72
2022-08-24T05:25:55.638Z,24.82
2022-08-24T05:28:35.737Z,24.74
2022-08-24T05:31:28.657Z,24.79
2022-08-24T05:34:14.614Z,24.69
2022-08-24T05:37:01.590Z,24.71
2022-08-24T05:39:51.998Z,24.81
2022-08-24T05:42:38.593Z,24.76
2022-08-24T05:45:26.561Z,25.15
2022-08-24T05:48:06.963Z,25.33
2022-08-24T05:51:10.585Z,25.46
2022-08-24T05:54:07.593Z,25.93
2022-08-24T05:56:57.457Z,26.51
2022-08-24T05:59:41.615Z,27.16
2022-08-24T06:02:24.117Z,28.21
2022-08-24T06:05:10.550Z,28.63
2022-08-24T06:07:57.538Z,29.54
2022-08-24T06:10:37.729Z,30.64
2022-08-24T06:13:24.580Z,31.82
2022-08-24T06:16:21.799Z,30.45
2022-08-24T06:19:08.575Z,29.55
2022-08-24T06:21:49.681Z,28.33
2022-08-24T06:24:58.799Z,28.22
2022-08-24T06:27:45.533Z,29.54
2022-08-24T06:30:32.522Z,29.90
2022-08-24T06:33:26.177Z,29.32
2022-08-24T06:36:12.518Z,29.00
2022-08-24T06:38:53.137Z,28.79
2022-08-24T06:41:39.504Z,28.49
2022-08-24T06:44:26.667Z,28.22
2022-08-24T06:47:23.517Z,27.87
2022-08-24T06:50:06.856Z,27.72
2022-08-24T06:52:53.542Z,27.74
2022-08-24T06:55:34.705Z,27.69
2022-08-24T06:58:21.525Z,27.54
2022-08-24T07:01:09.482Z,27.37
2022-08-24T07:03:50.194Z,27.23
2022-08-24T07:06:55.479Z,26.62
2022-08-24T07:09:42.623Z,26.93
2022-08-24T07:12:22.525Z,26.99
2022-08-24T07:15:11.484Z,26.68
2022-08-24T07:18:09.502Z,26.03
2022-08-24T07:20:52.890Z,25.61
2022-08-24T07:23:50.467Z,25.72
2022-08-24T07:26:38.585Z,25.71
2022-08-24T07:32:23.480Z,27.78
2022-08-24T07:35:10.481Z,28.92
2022-08-24T07:37:51.107Z,31.34
2022-08-24T07:41:05.227Z,31.55
2022-08-24T07:43:47.089Z,31.53
2022-08-24T07:46:33.567Z,32.76
2022-08-24T07:49:31.637Z,34.47
2022-08-24T07:52:20.474Z,36.80
2022-08-24T07:55:01.510Z,36.64
2022-08-24T07:57:51.484Z,35.96
2022-08-24T08:00:31.863Z,33.57
2022-08-24T08:03:19.484Z,32.01
2022-08-24T08:06:03.632Z,31.55
2022-08-24T08:08:53.520Z,31.88
2022-08-24T08:11:36.046Z,33.23
2022-08-24T08:14:22.448Z,35.43
2022-08-24T08:17:09.459Z,39.46
2022-08-24T08:19:49.553Z,39.73
2022-08-24T08:22:55.409Z,42.06
2022-08-24T08:26:03.525Z,42.82
2022-08-24T08:29:01.423Z,39.33
2022-08-24T08:31:44.052Z,35.87
2022-08-24T08:34:30.459Z,35.57
2022-08-24T08:37:11.466Z,35.58
2022-08-24T08:39:59.447Z,35.85
2022-08-24T08:42:59.190Z,35.79
2022-08-24T08:46:23.444Z,32.44
2022-08-24T08:50:10.399Z,32.45
2022-08-24T08:53:14.535Z,30.44
2022-08-24T08:57:02.382Z,31.20
2022-08-24T09:00:05.389Z,33.56
2022-08-24T09:03:14.208Z,35.58
2022-08-24T09:06:47.428Z,36.53
2022-08-24T09:10:10.234Z,37.53
2022-08-24T09:13:10.389Z,36.71
2022-08-24T09:15:57.873Z,35.86
2022-08-24T09:19:18.398Z,35.99
2022-08-24T09:22:22.474Z,37.77
2022-08-24T09:25:30.361Z,37.82
2022-08-24T09:28:49.406Z,37.55
2022-08-24T09:31:36.325Z,35.89
2022-08-24T09:34:32.340Z,36.28
2022-08-24T09:37:53.370Z,33.67
2022-08-24T09:40:46.365Z,31.30
2022-08-24T09:43:38.493Z,30.86
2022-08-24T09:47:04.413Z,30.30
2022-08-24T09:50:17.450Z,30.17
2022-08-24T09:53:16.357Z,29.69
2022-08-24T09:56:18.317Z,29.34
2022-08-24T09:59:48.364Z,29.40
2022-08-24T10:02:48.474Z,29.01
2022-08-24T10:05:41.465Z,28.76
2022-08-24T10:09:00.359Z,28.55
2022-08-24T10:12:12.347Z,28.37
2022-08-24T10:15:11.094Z,28.60
2022-08-24T10:18:17.362Z,28.77
2022-08-24T10:21:30.326Z,29.16
2022-08-24T10:24:29.201Z,29.25
2022-08-24T10:27:53.327Z,29.55
2022-08-24T10:31:02.343Z,29.89
2022-08-24T10:33:42.426Z,29.83
2022-08-24T10:36:44.310Z,30.03
2022-08-24T10:40:09.425Z,30.06
2022-08-24T10:44:07.316Z,30.39
2022-08-24T10:46:58.858Z,30.58
2022-08-24T10:50:16.315Z,30.90
2022-08-24T10:53:08.458Z,30.95
2022-08-24T10:56:11.262Z,30.91
2022-08-24T10:58:56.417Z,31.17
2022-08-24T11:01:45.327Z,32.01
2022-08-24T11:04:43.313Z,32.19
2022-08-24T11:07:23.843Z,32.42
2022-08-24T11:10:13.468Z,32.14
2022-08-24T11:12:53.860Z,31.97
2022-08-24T11:15:43.281Z,32.27
2022-08-24T11:18:24.294Z,32.60
2022-08-24T11:21:11.254Z,32.51
2022-08-24T11:23:51.801Z,32.17
2022-08-24T11:26:38.241Z,31.47
2022-08-24T11:29:28.244Z,30.60
2022-08-24T11:32:08.394Z,30.08
2022-08-24T11:34:55.255Z,29.48
2022-08-24T11:37:51.289Z,29.38
2022-08-24T11:40:44.406Z,29.27
2022-08-24T11:43:33.263Z,28.62
2022-08-24T11:46:32.222Z,28.75
2022-08-24T11:49:47.240Z,28.58
2022-08-24T11:52:50.309Z,28.66
2022-08-24T11:56:09.245Z,28.63
2022-08-24T11:58:56.969Z,28.78
2022-08-24T12:02:07.375Z,29.09
2022-08-24T12:05:17.211Z,29.33
2022-08-24T12:08:28.212Z,29.74
2022-08-24T12:11:34.321Z,29.92
2022-08-24T12:14:28.202Z,30.26
2022-08-24T12:17:23.072Z,30.29
2022-08-24T12:20:16.219Z,30.65
2022-08-24T12:23:09.222Z,31.02
2022-08-24T12:26:09.242Z,30.32
2022-08-24T12:28:54.707Z,30.46
2022-08-24T12:32:03.221Z,31.09
2022-08-24T12:34:50.094Z,31.50
2022-08-24T12:37:37.219Z,31.19
2022-08-24T12:40:43.161Z,30.38
2022-08-24T12:43:38.304Z,29.91
2022-08-24T12:46:30.470Z,29.50
2022-08-24T12:50:00.205Z,29.36
2022-08-24T12:53:26.356Z,29.59
2022-08-24T12:56:38.414Z,29.59
2022-08-24T12:59:29.169Z,29.64
2022-08-24T13:02:44.095Z,29.23
2022-08-24T13:05:55.194Z,29.15
2022-08-24T13:08:58.184Z,28.52
2022-08-24T13:11:38.695Z,28.13
2022-08-24T13:14:43.211Z,27.91
2022-08-24T13:17:42.113Z,27.69
2022-08-24T13:20:52.190Z,28.14
2022-08-24T13:23:39.157Z,28.10
2022-08-24T13:26:39.143Z,28.35
2022-08-24T13:29:27.182Z,28.79
2022-08-24T13:32:08.235Z,29.28
2022-08-24T13:34:58.144Z,29.45
2022-08-24T13:37:38.560Z,29.11
2022-08-24T13:40:30.235Z,29.44
2022-08-24T13:43:40.283Z,29.18
2022-08-24T13:47:02.148Z,29.30
2022-08-24T13:50:24.166Z,28.89
2022-08-24T13:53:41.834Z,28.65
2022-08-24T13:56:51.154Z,28.64
2022-08-24T14:00:05.162Z,28.55
2022-08-24T14:03:10.130Z,28.27
2022-08-24T14:05:54.133Z,28.37
2022-08-24T14:08:57.099Z,27.87
2022-08-24T14:11:54.191Z,28.20
2022-08-24T14:14:59.153Z,28.55
2022-08-24T14:17:55.833Z,28.53
2022-08-24T14:20:46.115Z,28.58
2022-08-24T14:23:56.458Z,28.55
2022-08-24T14:26:53.028Z,28.35
2022-08-24T14:29:44.112Z,28.49
2022-08-24T14:32:37.075Z,28.38
2022-08-24T14:35:26.123Z,28.26
2022-08-24T14:38:30.146Z,27.91
2022-08-24T14:41:43.639Z,27.95
2022-08-24T14:44:58.099Z,28.14
2022-08-24T14:48:15.106Z,28.33
2022-08-24T14:51:04.180Z,28.67
2022-08-24T14:54:16.078Z,28.69
2022-08-24T14:57:16.194Z,28.86
2022-08-24T15:00:23.073Z,29.13
2022-08-24T15:03:22.050Z,29.07
2022-08-24T15:06:29.301Z,29.36
2022-08-24T15:09:26.060Z,29.49
2022-08-24T15:28:37.652Z,29.32
2022-08-24T15:31:43.498Z,29.39
2022-08-24T15:34:23.535Z,29.19
2022-08-24T15:37:11.487Z,28.68
2022-08-24T15:39:51.619Z,28.04
2022-08-24T15:42:42.465Z,27.91
2022-08-24T15:45:29.459Z,27.61
2022-08-24T15:48:12.268Z,27.60
2022-08-24T15:51:02.472Z,27.68
2022-08-24T15:53:42.855Z,27.74
2022-08-24T15:56:42.449Z,27.84
2022-08-24T15:59:45.444Z,27.96
2022-08-24T16:02:38.795Z,27.94
2022-08-24T16:05:44.267Z,27.97
2022-08-24T16:08:30.713Z,28.13
2022-08-24T16:11:34.442Z,28.33
2022-08-24T16:14:35.606Z,28.52
2022-08-24T16:17:34.431Z,28.58
2022-08-24T16:20:23.524Z,28.65
2022-08-24T16:23:15.417Z,28.62
2022-08-24T16:26:37.555Z,28.60
2022-08-24T16:29:42.395Z,28.50
2022-08-24T16:32:50.740Z,28.35
2022-08-24T16:35:40.411Z,28.35
2022-08-24T16:38:27.390Z,28.32
2022-08-24T16:41:10.537Z,28.25
2022-08-24T16:43:57.385Z,28.19
2022-08-24T16:46:48.113Z,28.07
2022-08-24T16:49:28.558Z,28.07
2022-08-24T16:52:15.390Z,28.02
2022-08-24T16:54:56.561Z,27.95
2022-08-24T16:57:44.407Z,27.79
2022-08-24T17:00:25.564Z,27.79
2022-08-24T17:03:14.988Z,27.65
2022-08-24T17:06:02.388Z,27.62
2022-08-24T17:08:49.593Z,27.50
2022-08-24T17:11:29.394Z,27.34
2022-08-24T17:14:10.982Z,27.25
2022-08-24T17:16:57.402Z,27.13
2022-08-24T17:19:45.352Z,26.98
2022-08-24T17:22:26.549Z,26.88
2022-08-24T17:25:13.370Z,26.69
2022-08-24T17:28:08.375Z,26.58
2022-08-24T17:30:55.366Z,26.50
2022-08-24T17:33:35.828Z,26.39
2022-08-24T17:36:25.437Z,26.32
2022-08-24T17:39:05.521Z,26.21
2022-08-24T17:41:54.422Z,26.11
2022-08-24T17:44:45.332Z,26.01
2022-08-24T17:47:32.345Z,25.92
2022-08-24T17:50:20.331Z,25.87
2022-08-24T17:53:07.487Z,25.73
2022-08-24T17:55:47.493Z,25.71
2022-08-24T17:58:35.341Z,25.69
2022-08-24T18:01:22.378Z,25.71
2022-08-24T18:04:03.024Z,25.67
2022-08-24T18:06:50.362Z,25.74
2022-08-24T18:09:41.345Z,25.54
2022-08-24T18:12:24.481Z,25.40
2022-08-24T18:15:12.306Z,25.43
2022-08-24T18:18:04.317Z,25.35
2022-08-24T18:20:51.325Z,25.44
2022-08-24T18:23:43.420Z,25.28
2022-08-24T18:26:40.313Z,25.17
2022-08-24T18:29:36.310Z,25.17
2022-08-24T18:32:17.845Z,25.18
2022-08-24T18:35:04.305Z,25.16
2022-08-24T18:37:44.874Z,25.03
2022-08-24T18:40:33.750Z,24.98
2022-08-24T18:43:14.403Z,25.05
2022-08-24T18:46:02.303Z,24.99
2022-08-24T18:48:49.248Z,24.86
2022-08-24T18:51:35.916Z,24.82
2022-08-24T18:54:29.267Z,24.75
2022-08-24T18:57:09.792Z,24.78
2022-08-24T18:59:56.271Z,24.81
2022-08-24T19:02:36.958Z,24.82
2022-08-24T19:05:26.362Z,24.80
2022-08-24T19:08:13.394Z,24.83
2022-08-24T19:10:53.288Z,24.86
2022-08-24T19:13:41.266Z,24.76
2022-08-24T19:16:21.475Z,24.73
2022-08-24T19:19:08.270Z,24.70
2022-08-24T19:21:55.255Z,24.74
2022-08-24T19:24:36.410Z,24.75
2022-08-24T19:27:23.256Z,24.69
2022-08-24T19:30:04.867Z,24.63
2022-08-24T19:32:51.218Z,24.66
2022-08-24T19:35:41.275Z,24.70
2022-08-24T19:38:25.425Z,24.73
2022-08-24T19:41:15.239Z,24.71
2022-08-24T19:44:27.114Z,24.69
2022-08-24T19:47:15.193Z,24.55
2022-08-24T19:49:55.411Z,24.36
2022-08-24T19:52:44.212Z,24.32
2022-08-24T19:55:24.373Z,24.13
2022-08-24T19:58:23.703Z,24.13
2022-08-24T20:01:15.246Z,23.93
2022-08-24T20:04:02.251Z,24.08
2022-08-24T20:06:43.375Z,24.11
2022-08-24T20:09:30.235Z,24.12
2022-08-24T20:12:10.426Z,24.05
2022-08-24T20:14:57.171Z,23.93
2022-08-24T20:17:44.192Z,23.85
2022-08-24T20:20:33.352Z,23.88
2022-08-24T20:23:14.284Z,23.96
2022-08-24T20:25:56.342Z,23.95
2022-08-24T20:28:53.179Z,24.01
2022-08-24T20:31:41.315Z,24.07
2022-08-24T20:34:21.335Z,24.09
2022-08-24T20:37:08.242Z,24.11
2022-08-24T20:39:57.091Z,24.01
2022-08-24T20:42:38.492Z,23.92
2022-08-24T20:45:26.165Z,23.73
2022-08-24T20:48:07.407Z,23.62
2022-08-24T20:50:55.163Z,23.45
2022-08-24T20:53:42.196Z,23.36
2022-08-24T20:56:31.201Z,23.29
2022-08-24T20:59:22.550Z,23.23
2022-08-24T21:02:09.234Z,23.23
2022-08-24T21:04:49.640Z,23.17
2022-08-24T21:07:36.382Z,23.12
2022-08-24T21:10:21.430Z,23.01
2022-08-24T21:13:12.121Z,23.08
2022-08-24T21:16:00.275Z,23.07
2022-08-24T21:18:40.327Z,23.11
2022-08-24T21:21:27.147Z,23.17
2022-08-24T21:24:16.208Z,23.14
2022-08-24T21:27:04.118Z,23.09
2022-08-24T21:29:51.169Z,23.13
2022-08-24T21:32:50.242Z,23.15
2022-08-24T21:35:37.114Z,23.06
2022-08-24T21:38:17.535Z,23.12
2022-08-24T21:41:06.141Z,23.02
2022-08-24T21:43:46.587Z,23.00
2022-08-24T21:46:34.391Z,22.89
2022-08-24T21:49:15.015Z,23.06
2022-08-24T21:52:02.109Z,23.06
2022-08-24T21:54:49.172Z,22.87
2022-08-24T21:57:29.331Z,22.87
2022-08-24T22:00:22.197Z,22.89
2022-08-24T22:03:03.532Z,22.99
2022-08-24T22:05:50.063Z,22.94
2022-08-24T22:08:30.308Z,22.96
2022-08-24T22:11:20.308Z,23.00
2022-08-24T22:14:08.101Z,23.06
2022-08-24T22:16:56.153Z,22.98
2022-08-24T22:19:43.046Z,22.85
2022-08-24T22:22:31.134Z,22.78
2022-08-24T22:25:21.084Z,22.69
2022-08-24T22:28:15.065Z,22.62
2022-08-24T22:31:03.128Z,22.65
2022-08-24T22:33:43.216Z,22.58
2022-08-24T22:36:32.108Z,22.52
2022-08-24T22:39:13.278Z,22.45
2022-08-24T22:42:01.172Z,22.42
2022-08-24T22:44:49.129Z,22.38
2022-08-24T22:47:29.664Z,22.29
2022-08-24T22:50:17.093Z,22.28
2022-08-24T22:53:04.184Z,22.23
2022-08-24T22:55:51.040Z,22.16
2022-08-24T22:58:38.058Z,22.16
2022-08-24T23:01:26.239Z,22.09
2022-08-24T23:04:17.135Z,22.06
2022-08-24T23:07:04.098Z,22.03
2022-08-24T23:09:53.079Z,22.01
2022-08-24T23:12:33.183Z,21.99
2022-08-24T23:15:20.050Z,22.00
2022-08-24T23:18:20.150Z,21.92
2022-08-24T23:21:07.091Z,21.94
2022-08-24T23:23:47.178Z,21.91
2022-08-24T23:26:38.973Z,21.96
2022-08-24T23:29:28.040Z,21.94
2022-08-24T23:32:17.638Z,21.96
2022-08-24T23:35:03.800Z,21.99
2022-08-24T23:37:51.022Z,22.03
2022-08-24T23:40:37.971Z,22.06
2022-08-24T23:43:25.015Z,22.05
2022-08-24T23:46:12.062Z,22.05
2022-08-24T23:49:03.339Z,21.98
2022-08-24T23:51:52.549Z,21.97
2022-08-24T23:54:32.451Z,21.95
2022-08-24T23:57:19.023Z,21.90
